createdAt,value
2022-09-17T00:01:39.585Z,4.67
2022-09-17T00:07:33.021Z,3.60
2022-09-17T00:13:27.632Z,4.43
2022-09-17T00:19:25.022Z,4.70
2022-09-17T00:25:19.571Z,3.80
2022-09-17T00:31:14.245Z,3.83
2022-09-17T00:37:07.693Z,4.87
2022-09-17T00:43:00.987Z,5.60
2022-09-17T00:48:57.215Z,3.13
2022-09-17T00:54:56.774Z,3.90
2022-09-17T01:00:50.329Z,3.50
2022-09-17T01:06:53.378Z,4.33
2022-09-17T01:13:00.742Z,4.00
2022-09-17T01:19:09.339Z,3.47
2022-09-17T01:25:23.441Z,4.00
2022-09-17T01:31:38.884Z,3.90
2022-09-17T01:37:35.671Z,3.97
2022-09-17T01:43:35.442Z,2.73
2022-09-17T01:49:34.150Z,3.33
2022-09-17T01:55:32.533Z,3.10
2022-09-17T02:01:30.568Z,2.67
2022-09-17T02:07:26.784Z,2.93
2022-09-17T02:13:24.652Z,3.27
2022-09-17T02:19:22.774Z,3.40
2022-09-17T02:25:25.710Z,3.20
2022-09-17T02:31:19.240Z,2.70
2022-09-17T02:37:13.103Z,2.60
2022-09-17T02:43:15.696Z,3.60
2022-09-17T02:49:32.985Z,3.30
2022-09-17T02:55:33.933Z,2.87
2022-09-17T03:01:34.386Z,3.47
2022-09-17T03:07:29.083Z,2.30
2022-09-17T03:13:22.459Z,2.90
2022-09-17T03:19:17.092Z,3.40
2022-09-17T03:25:11.007Z,3.23
2022-09-17T03:31:06.045Z,3.50
2022-09-17T03:37:00.847Z,3.47
2022-09-17T03:42:54.143Z,2.30
2022-09-17T03:48:47.549Z,2.27
2022-09-17T03:54:41.788Z,2.57
2022-09-17T04:00:37.050Z,2.57
2022-09-17T04:06:30.032Z,2.00
2022-09-17T04:12:24.381Z,3.20
2022-09-17T04:18:17.946Z,3.63
2022-09-17T04:24:11.497Z,2.30
2022-09-17T04:30:06.719Z,2.33
2022-09-17T04:36:00.028Z,1.77
2022-09-17T04:41:53.315Z,3.13
2022-09-17T04:47:47.987Z,2.00
2022-09-17T04:53:41.249Z,2.30
2022-09-17T04:59:34.612Z,2.33
2022-09-17T05:05:29.112Z,2.20
2022-09-17T05:11:22.024Z,1.70
2022-09-17T05:17:15.329Z,2.60
2022-09-17T05:23:09.967Z,2.17
2022-09-17T05:29:03.366Z,2.40
2022-09-17T05:34:56.632Z,1.93
2022-09-17T05:40:51.306Z,2.90
2022-09-17T05:46:44.873Z,2.63
2022-09-17T05:52:37.811Z,2.00
2022-09-17T05:58:34.715Z,3.77
2022-09-17T06:04:30.548Z,2.40
2022-09-17T06:10:27.044Z,3.60
2022-09-17T06:16:22.299Z,2.83
2022-09-17T06:22:15.641Z,2.10
2022-09-17T06:28:08.643Z,2.27
2022-09-17T06:34:05.926Z,2.80
2022-09-17T06:40:00.029Z,2.50
2022-09-17T06:45:54.778Z,2.87
2022-09-17T06:51:49.571Z,1.90
2022-09-17T06:57:42.916Z,1.97
2022-09-17T07:03:36.460Z,1.70
2022-09-17T07:09:31.159Z,1.93
2022-09-17T07:15:24.684Z,2.07
2022-09-17T07:21:17.901Z,2.33
2022-09-17T07:27:12.139Z,1.50
2022-09-17T07:39:59.700Z,1.10
2022-09-17T07:45:54.687Z,1.30
2022-09-17T07:51:48.096Z,1.73
2022-09-17T07:58:43.386Z,1.80
2022-09-17T08:04:37.791Z,1.37
2022-09-17T08:10:31.418Z,1.30
2022-09-17T08:16:25.989Z,1.30
2022-09-17T08:22:20.456Z,1.53
2022-09-17T08:28:14.087Z,1.70
2022-09-17T08:34:09.897Z,2.50
2022-09-17T08:40:05.062Z,2.20
2022-09-17T08:45:59.860Z,1.50
2022-09-17T08:52:05.982Z,1.40
2022-09-17T09:11:00.333Z,1.60
2022-09-17T09:16:55.058Z,1.30
2022-09-17T09:22:50.479Z,1.53
2022-09-17T09:28:55.892Z,1.23
2022-09-17T09:34:51.354Z,0.60
2022-09-17T09:40:49.398Z,0.83
2022-09-17T09:47:12.342Z,1.10
2022-09-17T09:53:17.617Z,1.30
2022-09-17T09:59:13.312Z,1.13
2022-09-17T10:05:12.164Z,0.70
2022-09-17T10:11:07.485Z,0.73
2022-09-17T10:17:21.230Z,0.70
2022-09-17T10:23:16.085Z,0.60
2022-09-17T10:29:16.444Z,1.03
2022-09-17T10:35:28.111Z,0.93
2022-09-17T10:41:24.851Z,0.90
2022-09-17T10:47:23.578Z,0.83
2022-09-17T10:53:17.858Z,0.77
2022-09-17T10:59:38.971Z,0.90
2022-09-17T11:05:42.461Z,0.73
2022-09-17T11:11:46.146Z,0.63
2022-09-17T11:17:58.142Z,1.10
2022-09-17T11:24:08.348Z,1.10
2022-09-17T11:30:16.548Z,0.73
2022-09-17T11:36:15.754Z,1.03
2022-09-17T11:42:15.373Z,1.10
2022-09-17T11:48:16.503Z,1.27
2022-09-17T11:54:22.574Z,0.70
2022-09-17T12:00:18.366Z,0.90
2022-09-17T12:06:15.737Z,1.00
2022-09-17T12:12:44.769Z,0.90
2022-09-17T12:18:43.945Z,1.20
2022-09-17T12:24:37.258Z,0.80
2022-09-17T12:30:38.698Z,1.13
2022-09-17T12:36:45.979Z,1.30
2022-09-17T12:43:14.553Z,1.73
2022-09-17T12:49:52.031Z,1.20
2022-09-17T12:55:59.161Z,1.60
2022-09-17T13:01:57.066Z,1.50
2022-09-17T13:08:16.028Z,1.40
2022-09-17T13:14:17.706Z,1.80
2022-09-17T13:20:19.106Z,1.27
2022-09-17T13:26:17.122Z,1.90
2022-09-17T13:32:11.794Z,1.60
2022-09-17T13:38:05.337Z,2.27
2022-09-17T13:44:00.927Z,2.07
2022-09-17T13:49:58.814Z,1.90
2022-09-17T13:55:54.287Z,1.30
2022-09-17T14:02:03.985Z,1.10
2022-09-17T14:08:25.416Z,1.10
2022-09-17T14:14:49.973Z,1.20
2022-09-17T14:20:45.124Z,1.60
2022-09-17T14:27:10.753Z,0.60
2022-09-17T14:33:09.411Z,0.90
2022-09-17T14:39:06.260Z,0.77
2022-09-17T14:45:02.332Z,0.60
2022-09-17T14:51:18.601Z,0.80
2022-09-17T14:57:28.257Z,0.90
2022-09-17T15:03:23.461Z,0.90
2022-09-17T15:09:17.556Z,1.20
2022-09-17T15:15:18.878Z,0.97
2022-09-17T15:21:31.619Z,1.20
2022-09-17T15:27:28.866Z,1.03
2022-09-17T15:33:25.045Z,1.27
2022-09-17T15:39:30.471Z,1.10
2022-09-17T15:45:29.258Z,1.10
2022-09-17T15:51:28.282Z,1.10
2022-09-17T15:57:24.309Z,1.20
2022-09-17T16:04:03.754Z,1.73
2022-09-17T16:09:59.685Z,1.20
2022-09-17T16:15:53.153Z,1.90
2022-09-17T16:21:46.456Z,1.10
2022-09-17T16:27:51.662Z,1.50
2022-09-17T16:33:44.902Z,1.37
2022-09-17T16:39:37.959Z,1.10
2022-09-17T16:45:33.682Z,1.13
2022-09-17T16:51:27.115Z,1.40
2022-09-17T16:57:20.361Z,1.10
2022-09-17T17:03:16.365Z,1.10
2022-09-17T17:09:12.580Z,1.23
2022-09-17T17:15:07.368Z,1.13
2022-09-17T17:21:07.631Z,1.70
2022-09-17T17:27:00.479Z,0.97
2022-09-17T17:32:54.544Z,1.13
2022-09-17T17:38:48.870Z,0.70
2022-09-17T17:44:42.331Z,0.60
2022-09-17T17:50:35.476Z,0.50
2022-09-17T17:56:29.789Z,0.40
2022-09-17T18:02:23.235Z,0.60
2022-09-17T18:08:16.614Z,1.00
2022-09-17T18:14:13.728Z,1.00
2022-09-17T18:20:07.514Z,1.60
2022-09-17T18:26:01.352Z,1.50
2022-09-17T18:31:56.052Z,1.73
2022-09-17T18:37:49.702Z,1.60
2022-09-17T18:43:42.903Z,1.90
2022-09-17T18:49:37.559Z,1.60
2022-09-17T18:55:31.068Z,1.50
2022-09-17T19:01:25.893Z,1.80
2022-09-17T19:07:20.512Z,1.20
2022-09-17T19:13:13.819Z,1.60
2022-09-17T19:19:07.322Z,1.37
2022-09-17T19:25:01.906Z,1.87
2022-09-17T19:30:55.163Z,1.50
2022-09-17T19:36:48.022Z,1.63
2022-09-17T19:42:42.691Z,1.63
2022-09-17T19:48:37.034Z,1.20
2022-09-17T19:54:30.322Z,1.30
2022-09-17T20:00:25.267Z,1.80
2022-09-17T20:06:21.061Z,2.23
2022-09-17T20:12:14.311Z,1.80
2022-09-17T20:18:08.930Z,2.40
2022-09-17T20:24:01.997Z,1.93
2022-09-17T20:29:55.225Z,2.30
2022-09-17T20:35:49.851Z,3.13
2022-09-17T20:41:43.522Z,2.40
2022-09-17T20:47:36.990Z,2.70
2022-09-17T20:53:33.789Z,3.00
2022-09-17T20:59:30.145Z,2.40
2022-09-17T21:05:23.370Z,2.37
2022-09-17T21:11:18.719Z,2.80
2022-09-17T21:17:12.014Z,1.93
2022-09-17T21:23:05.585Z,2.37
2022-09-17T21:29:00.355Z,2.03
2022-09-17T21:34:53.654Z,3.40
2022-09-17T21:40:56.333Z,2.03
2022-09-17T21:46:56.810Z,2.27
2022-09-17T21:52:50.184Z,1.60
2022-09-17T21:58:44.677Z,2.07
2022-09-17T22:04:39.303Z,1.50
2022-09-17T22:10:32.554Z,2.50
2022-09-17T22:16:28.361Z,1.70
2022-09-17T22:22:23.321Z,1.80
2022-09-17T22:28:21.355Z,1.80
2022-09-17T22:34:17.035Z,1.67
2022-09-17T22:40:12.505Z,1.47
2022-09-17T22:46:13.307Z,1.60
2022-09-17T22:52:06.736Z,1.83
2022-09-17T22:58:01.470Z,1.57
2022-09-17T23:03:54.840Z,1.70
2022-09-17T23:09:48.249Z,2.10
2022-09-17T23:15:42.852Z,1.80
2022-09-17T23:21:35.788Z,1.83
2022-09-17T23:27:29.297Z,1.70
2022-09-17T23:33:23.853Z,1.40
2022-09-17T23:39:17.108Z,2.10
2022-09-17T23:45:10.688Z,1.97
2022-09-17T23:51:05.679Z,1.97
2022-09-17T23:56:59.309Z,1.40
